Home Team Position History
You can show your support by sponsoring this page for $30.  
Your ad/message will appear in this space for one year.  
Thank you for your support!       Team History Index Houston Astros
         
          Third Base
             
Pos St All- Other Third Base Fielding Stats Pos St Batting Statistics as Third Baseman Win Shares Pos St
Year Rank Rank Name HOF MVP Star Rookie GG SS Team Stdg Bats Age Pos Games PO Assts Err DP F Pct. Year Rank Rank Name At Bats Hits 2B 3B HR Runs RBI BB IBB SO HP SH SF SB CS GDP BA OBA SA OPS RC B WS F WS T WS BWS/G FWS/G TWS/G Adj WSQ Year Rank Rank Name
1962 5 5 Bob Aspromonte R   HOU 8 R 24   142 150 233 13 21 .967   1962 5 5 Bob Aspromonte 499 133 18 4 11 55 55 43 4 51 8 4 3 3 5 11 .267 .333 .385 .718 63   9.6 3.7 13.3 .068 .026 .094 12.00 1962 5 5 Bob Aspromonte
       
1963 11 6 Bob Aspromonte   HOU 9 R 25   131 134 213 23 4 .938   1963 11 6 Bob Aspromonte 462 100 9 5 8 42 49 40 4 54 1 3 2 3 1 15 .216 .279 .310 .589 37   4.3 3.1 7.4 .033 .024 .056 5.14 1963 11 6 Bob Aspromonte
1963 18 Johnny Temple   HOU 9 R 35 2B   29 27 46 8 1 .901   1963 18 Johnny Temple 102 26 4 0 0 5 4 15 0 14 0 5 0 4 1 2 .255 .350 .294 .644 12   2.8 0.5 3.3 .097 .017 .114 3.28 1963 18 Johnny Temple
       
1964 6 6 Bob Aspromonte   HOU 9 R 26   155 133 261 11 10 .973   1964 6 6 Bob Aspromonte 551 155 20 3 12 52 69 34 7 54 8 6 6 6 7 15 .281 .329 .394 .723 68   13.3 4.2 17.5 .086 .027 .113 14.89 1964 6 6 Bob Aspromonte
       
1965 7 7 Bob Aspromonte   HOU 9 R 27   146 123 281 16 25 .962   1965 7 7 Bob Aspromonte 553 145 15 2 5 51 49 36 4 52 3 4 4 2 2 13 .262 .309 .324 .633 54   8.3 5.1 13.4 .057 .035 .092 10.83 1965 7 7 Bob Aspromonte
       
1966 10 9 Bob Aspromonte   HOU 8 R 28   149 149 261 16 18 .962   1966 10 9 Bob Aspromonte 551 140 16 3 8 55 52 35 7 61 2 3 3 0 3 22 .254 .299 .338 .637 45   4.2 3.8 8.0 .028 .026 .054 4.94 1966 10 9 Bob Aspromonte
       
1967 5 5 Bob Aspromonte   HOU 9 R 29   133 130 237 14 17 .963   1967 5 5 Bob Aspromonte 481 141 24 5 6 50 58 45 11 43 2 3 4 2 2 15 .293 .353 .401 .754 65   15.5 2.5 18.0 .117 .019 .135 17.04 1967 5 5 Bob Aspromonte
1967 18 Eddie Mathews BBW   HOU 9 L 35 1B/AL-3B   24 22 33 3 3 .948   1967 18 Eddie Mathews 78 16 3 0 3 9 10 6 1 18 0 1 3 0 0 1 .205 .253 .359 .612 7   1.4 0.4 1.8 .058 .017 .075 1.27 1967 18 Eddie Mathews
       
1968 7 7 Doug Rader   HOU 10 R 23   86 83 168 19 14 .930   1968 7 7 Doug Rader 307 79 14 3 5 34 39 30 3 47 1 2 4 2 2 8 .257 .322 .371 .693 36   8.8 2.2 11.0 .102 .026 .128 11.19 1968 7 7 Doug Rader
1968 13 Bob Aspromonte   HOU 10 R 30 LF   75 67 148 6 8 .973   1968 13 Bob Aspromonte 247 57 6 2 1 19 30 25 8 34 1 4 1 0 0 13 .231 .303 .283 .586 19   1.6 2.0 3.6 .021 .027 .048 2.24 1968 13 Bob Aspromonte
       
1969 4 4 Doug Rader   HOU 5W R 24   154 126 307 25 34 .945   1969 4 4 Doug Rader 564 138 23 3 11 61 81 61 7 100 6 1 3 1 5 17 .245 .323 .355 .678 63   10.1 5.7 15.8 .066 .037 .103 14.87 1969 4 4 Doug Rader
       
1970 5 5 Doug Rader G   HOU 4W R 25   154 147 357 18 39 .966   1970 5 5 Doug Rader 575 145 25 3 25 89 87 56 7 100 4 4 3 3 2 23 .252 .321 .437 .758 76   12.3 6.6 18.9 .080 .043 .123 17.67 1970 5 5 Doug Rader
       
1971 6 5 Doug Rader G   HOU T4W R 26   135 93 275 21 28 .946   1971 6 5 Doug Rader 484 118 21 4 12 51 56 40 2 112 3 2 5 5 1 10 .244 .303 .378 .681 56   10.0 4.5 14.5 .074 .033 .107 13.05 1971 6 5 Doug Rader
1971 19 Denis Menke   HOU T4W R 30 1B   32 24 41 4 4 .942   1971 19 Denis Menke 95 19 3 0 1 9 9 12 1 17 1 1 3 1 1 3 .200 .288 .263 .551 8   1.3 0.9 2.2 .041 .028 .069 1.59 1971 19 Denis Menke
       
1972 4 4 Doug Rader G   HOU 2W R 27   152 119 340 20 31 .958   1972 4 4 Doug Rader 553 131 24 7 22 70 90 57 8 120 5 2 9 5 5 18 .237 .309 .425 .734 70   12.2 6.2 18.4 .080 .041 .121 18.36 1972 4 4 Doug Rader
       
1973 6 6 Doug Rader G   HOU 4W R 28   152 134 296 25 24 .945   1973 6 6 Doug Rader 574 146 26 0 21 79 89 46 6 97 3 3 6 4 3 10 .254 .310 .409 .719 73   13.2 4.4 17.6 .087 .029 .116 16.72 1973 6 6 Doug Rader
       
1974 5 5 Doug Rader G   HOU 4W R 29   152 128 347 17 28 .965   1974 5 5 Doug Rader 533 137 27 3 17 61 78 60 7 131 4 0 4 7 2 14 .257 .334 .415 .749 72   13.3 4.9 18.2 .088 .032 .120 16.94 1974 5 5 Doug Rader
       
1975 10 10 Doug Rader   HOU 6W R 30   124 111 257 11 24 .971   1975 10 10 Doug Rader 439 97 23 2 12 41 48 42 3 100 5 2 2 5 4 11 .221 .295 .364 .659 46   5.8 3.1 8.9 .047 .025 .072 6.43 1975 10 10 Doug Rader
1975 21 Enos Cabell   HOU 6W R 25 1B,LF,RF   22 23 43 1 5 .985   1975 21 Enos Cabell 78 16 2 1 0 7 9 3 1 11 0 0 1 5 0 0 .205 .232 .256 .488 5   0.7 0.4 1.1 .032 .018 .050 0.66 1975 21 Enos Cabell
1975 16 Ken Boswell   HOU 6W L 29 2B   23 14 38 5 2 .912   1975 16 Ken Boswell 71 18 4 1 0 9 10 15 2 7 1 0 2 0 1 3 .254 .382 .338 .720 10   1.3 0.4 1.7 .057 .017 .074 1.25 1975 16 Ken Boswell
       
1976 6 6 Enos Cabell   HOU 3W R 26   143 128 263 17 24 .958   1976 6 6 Enos Cabell 585 160 13 7 2 85 43 29 1 79 2 3 2 35 7 13 .274 .309 .330 .639 61   12.5 3.4 15.9 .087 .024 .111 14.13 1976 6 6 Enos Cabell
       
1977 5 5 Enos Cabell   HOU 3W R 27   144 140 280 23 17 .948   1977 5 5 Enos Cabell 608 170 34 7 16 99 63 27 2 55 3 2 2 42 20 8 .280 .313 .438 .751 80   13.6 3.4 17.0 .094 .024 .118 16.56 1977 5 5 Enos Cabell
       
1978 5 5 Enos Cabell 22   HOU 5W R 28   153 136 274 18 15 .958   1978 5 5 Enos Cabell 630 186 31 7 7 87 67 19 1 76 2 3 4 31 14 11 .295 .316 .400 .716 77   14.5 4.6 19.1 .095 .030 .125 19.12 1978 5 5 Enos Cabell
       
1979 12 10 Enos Cabell   HOU 2W R 29 1B   132 109 178 13 11 .957   1979 12 10 Enos Cabell 495 131 25 3 6 46 57 17 3 51 2 2 0 30 12 15 .265 .292 .364 .656 48   7.6 2.5 10.1 .058 .019 .077 7.60 1979 12 10 Enos Cabell
1979 15 Art Howe   HOU 2W R 32 2B   59 47 70 4 6 .967   1979 15 Art Howe 115 34 2 2 2 10 10 12 1 11 0 0 1 2 1 0 .296 .359 .400 .759 18   3.2 2.1 5.3 .054 .036 .090 4.31 1979 15 Art Howe
       
1980 8 8 Enos Cabell HOU 1W R 30   150 118 250 29 15 .927   1980 8 8 Enos Cabell 597 163 22 8 2 67 55 26 6 83 1 1 5 21 13 13 .273 .302 .347 .649 56   8.4 2.9 11.3 .056 .019 .075 8.62 1980 8 8 Enos Cabell
1980 16 Art Howe HOU 1W R 33 1B   25 11 27 1 3 .974   1980 16 Art Howe 56 15 2 0 2 4 9 5 2 4 0 1 1 0 0 3 .268 .323 .411 .734 7   1.6 0.5 2.1 .064 .020 .084 1.69 1980 16 Art Howe
     
Pos St All- Other Third Base Fielding Stats Pos St Batting Statistics as Third Baseman Win Shares Pos St
Year Rank Rank Name HOF MVP Star Rookie GG SS Team Stdg Bats Age Pos Games PO Assts Err DP F Pct. Year Rank Rank Name At Bats Hits 2B 3B HR Runs RBI BB IBB SO HP SH SF SB CS GDP BA OBA SA OPS RC B WS F WS T WS BWS/G FWS/G TWS/G Adj WSQ Year Rank Rank Name
1981 4 4 Art Howe 18 HOU 3W R 34   98 52 206 9 16 .966   1981 4 4 Art Howe 350 102 22 3 3 44 34 40 7 23 0 1 3 1 3 8 .291 .361 .397 .758 49   11.9 4.2 16.1 .121 .043 .164 16.47 1981 4 4 Art Howe
     
1982 12 10 Art Howe HOU 5W R 35 1B   72 53 153 6 13 .972   1982 12 10 Art Howe 242 57 10 1 3 20 20 30 13 34 0 3 1 1 0 3 .236 .319 .322 .641 26   3.6 3.0 6.6 .050 .042 .092 5.54 1982 12 10 Art Howe
1982 8 Ray Knight 25 a HOU 5W R 29 1B   67 57 131 7 18 .964   1982 8 Ray Knight 253 77 15 2 4 31 27 12 2 25 4 1 5 0 0 6 .304 .339 .427 .766 36   7.2 2.5 9.7 .107 .037 .145 10.21 1982 8 Ray Knight
     
1983 6 6 Phil Garner HOU 3W R 34   154 100 311 24 22 .945   1983 6 6 Phil Garner 567 135 24 2 14 76 79 62 8 84 5 3 6 18 12 4 .238 .316 .362 .678 65   11.7 4.6 16.3 .076 .030 .106 14.25 1983 6 6 Phil Garner
     
1984 8 7 Phil Garner HOU T2W R 35 2B   82 71 163 5 16 .979   1984 8 7 Phil Garner 261 73 12 6 3 42 35 27 2 49 2 3 4 1 1 4 .280 .347 .406 .753 38   7.5 2.6 10.1 .091 .032 .123 10.45 1984 8 7 Phil Garner
1984 19 Ray Knight HOU T2W R 31 1B   54 37 86 7 6 .946   1984 19 Ray Knight 180 39 7 0 1 9 17 11 1 18 1 0 2 0 2 2 .217 .263 .272 .535 14   1.3 1.4 2.7 .024 .026 .050 1.79 1984 19 Ray Knight
1984 14 Denny Walling HOU T2W L 30   52 30 100 6 14 .956   1984 14 Denny Walling 183 51 8 3 2 22 20 7 0 20 0 0 2 5 1 3 .279 .302 .388 .690 22   4.5 1.4 5.9 .087 .027 .113 5.85 1984 14 Denny Walling
     
1985 6 4 Phil Garner HOU T3W R 36   123 75 197 20 14 .932   1985 6 4 Phil Garner 411 103 21 7 6 55 41 29 2 67 2 0 5 3 2 10 .251 .300 .380 .680 46   9.0 2.4 11.4 .073 .020 .093 10.71 1985 6 4 Phil Garner
1985 15 Denny Walling HOU T3W L 31 1B   51 31 104 9 9 .938   1985 15 Denny Walling 178 54 11 1 4 29 27 14 0 12 0 0 3 3 2 6 .303 .349 .444 .793 26   5.2 1.0 6.2 .102 .020 .122 6.67 1985 15 Denny Walling
     
1986 3 3 Denny Walling HOU 1W L 32   102 59 156 9 6 .960   1986 3 3 Denny Walling 312 94 21 1 11 46 50 27 2 23 0 0 4 1 0 7 .301 .353 .481 .834 53   12.0 3.8 15.8 .118 .037 .155 17.97 1986 3 3 Denny Walling
1986 12 Phil Garner HOU 1W R 37   84 58 141 23 13 .896   1986 12 Phil Garner 279 77 13 2 8 41 36 24 2 42 1 0 3 11 4 11 .276 .332 .423 .755 37   6.3 2.4 8.7 .075 .029 .104 8.10 1986 12 Phil Garner
     
1987 11 10 Denny Walling HOU 3W L 33   79 72 109 10 13 .948   1987 11 10 Denny Walling 240 65 13 1 5 34 25 29 1 26 0 1 4 4 1 5 .271 .344 .396 .740 34   5.8 2.3 8.1 .073 .029 .103 7.37 1987 11 10 Denny Walling
1987 17 Ken Caminiti R HOU 3W B 24   61 50 98 8 11 .949   1987 17 Ken Caminiti 194 48 7 1 3 10 23 12 1 42 0 2 1 0 0 6 .247 .290 .340 .630 17   1.1 1.9 3.0 .018 .031 .049 1.88 1987 17 Ken Caminiti
1987 19 Phil Garner HOU 3W R 38   36 28 54 2 3 .976   1987 19 Phil Garner 102 23 4 0 3 14 13 8 1 18 0 0 2 1 0 2 .225 .277 .353 .630 10   0.6 0.9 1.5 .017 .025 .042 0.86 1987 19 Phil Garner
     
1988 12 10 Buddy Bell HOU 4W R 36   66 31 114 12 8 .924   1988 12 10 Buddy Bell 240 59 9 1 6 21 31 18 1 27 0 0 1 1 1 6 .246 .297 .367 .664 25   4.9 1.5 6.4 .074 .023 .097 5.77 1988 12 10 Buddy Bell
1988 13 Denny Walling HOU 5W L 34   51 33 99 7 14 .950   1988 13 Denny Walling 144 38 8 2 1 16 16 14 3 15 0 1 0 0 0 1 .264 .329 .368 .697 18   3.1 2.0 5.1 .061 .039 .100 4.62 1988 13 Denny Walling
1988 27 Ken Caminiti HOU 5W B 25   28 12 43 3 2 .948   1988 27 Ken Caminiti 78 15 2 0 1 5 7 5 0 18 0 0 1 0 0 3 .192 .238 .256 .494 4   - 0.7 0.7 .000 .025 .025 0.32 1988 27 Ken Caminiti
1988 26 Chuck Jackson R HOU 5W R 25   32 11 48 6 6 .908   1988 26 Chuck Jackson 48 10 1 0 1 3 3 4 0 11 0 0 0 0 1 1 .208 .269 .292 .561 3   0.4 0.6 1.0 .013 .019 .031 0.51 1988 26 Chuck Jackson
     
1989 3 3 Ken Caminiti HOU 3W B 26   160 126 335 22 27 .954   1989 3 3 Ken Caminiti 583 149 31 3 10 71 72 51 9 92 3 3 4 3 1 8 .256 .317 .370 .687 70   15.5 8.1 23.6 .097 .051 .148 25.96 1989 3 3 Ken Caminiti
     
1990 9 6 Ken Caminiti HOU T4W B 27   149 118 243 21 22 .945   1990 9 6 Ken Caminiti 531 130 20 2 4 52 51 48 7 92 0 3 4 8 4 15 .245 .305 .313 .618 48   5.4 5.1 10.5 .036 .034 .070 8.48 1990 9 6 Ken Caminiti
1990 23 Ken Oberkfell HOU T4W L 34   24 12 31 3 3 .935   1990 23 Ken Oberkfell 62 16 4 0 0 6 5 5 0 4 1 0 0 0 1 0 .258 .324 .323 .647 7   0.1 0.6 0.7 .004 .025 .029 0.37 1990 23 Ken Oberkfell
     
1991 7 7 Ken Caminiti HOU 6W B 28   152 129 293 23 29 .948   1991 7 7 Ken Caminiti 572 145 30 3 13 66 80 46 7 84 5 3 4 4 5 18 .253 .313 .385 .698 65   10.8 5.9 16.7 .071 .039 .110 15.72 1991 7 7 Ken Caminiti
     
1992 4 4 Ken Caminiti HOU 4W B 29   129 102 210 11 19 .966   1992 4 4 Ken Caminiti 500 148 31 2 13 68 62 44 13 68 1 2 4 10 3 12 .296 .352 .444 .796 69   18.0 3.4 21.4 .140 .026 .166 23.42 1992 4 4 Ken Caminiti
1992 T27 Casey Candaele HOU 4W B 31 SS,LF   29 24 52 4 3 .950   1992 T27 Casey Candaele 88 16 3 0 0 4 3 4 1 10 0 2 1 1 0 3 .182 .215 .216 .431 4   - 0.7 0.7 .000 .024 .024 0.29 1992 T27 Casey Candaele
     
1993 10 9 Ken Caminiti HOU 3W B 30   143 123 264 24 23 .942   1993 10 9 Ken Caminiti 542 142 31 0 13 75 75 49 10 88 0 1 3 7 4 15 .262 .322 .391 .713 64   8.8 5.1 13.9 .062 .036 .097 12.75 1993 10 9 Ken Caminiti
1993 19 Chris Donnels HOU 3W L 27 1B   31 11 42 6 5 .898   1993 19 Chris Donnels 73 21 7 1 1 7 11 9 0 13 0 0 1 1 0 2 .288 .361 .452 .813 12   1.7 0.7 2.4 .055 .023 .077 1.97 1993 19 Chris Donnels
     
1994 4 4 Ken Caminiti a HOU 2C B 31   108 79 200 9 17 .969   1994 4 4 Ken Caminiti 400 115 28 2 18 63 75 43 13 68 2 0 3 4 3 8 .288 .357 .503 .860 66   12.6 3.0 15.6 .117 .028 .144 17.08 1994 4 4 Ken Caminiti
     
1995 5 5 Dave Magadan HOU 2C L 32   100 55 159 18 9 .922   1995 5 5 Dave Magadan 300 97 23 0 2 40 43 55 5 48 0 1 2 2 1 8 .323 .426 .420 .846 57   12.0 1.2 13.2 .120 .012 .132 13.85 1995 5 5 Dave Magadan
1995 26 Craig Shipley HOU 2C R 32   65 27 82 2 5 .982   1995 26 Craig Shipley 168 44 5 0 2 18 10 3 1 19 1 1 1 3 1 11 .262 .277 .327 .604 12   0.7 0.8 1.5 .011 .012 .023 0.65 1995 26 Craig Shipley
     
Pos St All- Other Third Base Fielding Stats Pos St Batting Statistics as Third Baseman Win Shares Pos St
Year Rank Rank Name HOF MVP Star Rookie GG SS Team Stdg Bats Age Pos Games PO Assts Err DP F Pct. Year Rank Rank Name At Bats Hits 2B 3B HR Runs RBI BB IBB SO HP SH SF SB CS GDP BA OBA SA OPS RC B WS F WS T WS BWS/G FWS/G TWS/G Adj WSQ Year Rank Rank Name
1996 5 5 Sean Berry HOU 2C R 30   110 67 194 22 13 .922   1996 5 5 Sean Berry 410 114 35 1 16 54 85 22 1 54 9 2 4 12 5 11 .278 .326 .485 .811 62   13.6 2.3 15.9 .124 .021 .145 17.04 1996 5 5 Sean Berry
1996 16 Bill Spiers HOU 2C L 30   77 22 94 5 9 .959   1996 16 Bill Spiers 153 42 7 0 4 19 17 14 4 21 1 1 0 5 0 2 .275 .339 .399 .738 22   3.9 1.1 5.0 .051 .014 .065 3.59 1996 16 Bill Spiers
1996 29 Orlando Miller HOU 2C R 27 SS   29 14 23 2 1 .949   1996 29 Orlando Miller 62 21 4 0 2 6 11 1 0 9 0 0 0 0 2 3 .339 .349 .500 .849 8   1.0 0.3 1.3 .034 .010 .045 0.78 1996 29 Orlando Miller
     
1997 17 14 Sean Berry HOU 1C R 31   85 47 140 16 11 .921   1997 17 14 Sean Berry 280 71 23 1 8 40 41 23 1 50 5 1 5 1 5 7 .254 .316 .429 .745 32   3.3 1.3 4.6 .039 .015 .054 2.99 1997 17 14 Sean Berry
1997 13 Bill Spiers HOU 1C L 31 SS   84 44 129 12 12 .935   1997 13 Bill Spiers 188 51 11 3 3 22 28 36 5 27 0 1 1 7 4 2 .271 .387 .410 .797 32   6.9 1.5 8.4 .082 .018 .100 7.43 1997 13 Bill Spiers
1997 25 Ricky Gutierrez HOU 1C R 27 SS   22 10 35 0 3 1.000   1997 25 Ricky Gutierrez 66 19 3 0 2 14 8 4 0 16 0 0 0 2 0 4 .288 .329 .424 .753 8   0.5 0.3 0.8 .023 .014 .036 0.42 1997 25 Ricky Gutierrez
     
1998 10 8 Bill Spiers HOU 1C L 32   99 57 170 8 9 .966   1998 10 8 Bill Spiers 328 95 25 3 4 60 38 40 0 47 4 0 1 8 2 8 .290 .373 .421 .794 53   10.6 1.9 12.5 .107 .019 .126 12.29 1998 10 8 Bill Spiers
1998 11 Sean Berry HOU 1C R 32   87 55 150 10 13 .953   1998 11 Sean Berry 279 90 17 1 12 46 49 28 3 44 7 1 4 3 1 7 .323 .393 .520 .913 57   9.8 1.8 11.6 .113 .021 .133 11.71 1998 11 Sean Berry
     
1999 12 12 Ken Caminiti HOU 1C B 36   75 52 139 14 17 .932   1999 12 12 Ken Caminiti 270 78 11 1 13 48 56 45 4 58 3 0 7 6 2 7 .289 .388 .481 .869 50   8.2 2.3 10.5 .109 .031 .140 10.95 1999 12 12 Ken Caminiti
1999 15 Bill Spiers HOU 1C L 33 LF   71 40 143 8 11 .958   1999 15 Bill Spiers 224 67 14 1 4 37 25 27 2 20 0 2 1 4 3 5 .299 .373 .424 .797 36   5.2 2.1 7.3 .073 .030 .103 6.53 1999 15 Bill Spiers
1999 20 Russ Johnson R HOU 1C R 26   36 16 52 4 8 .944   1999 20 Russ Johnson 90 23 6 0 3 16 14 15 0 14 0 0 2 0 1 2 .256 .355 .422 .777 14   2.1 0.9 3.0 .058 .025 .083 2.40 1999 20 Russ Johnson
     
2000 13 11 Chris Truby R HOU 4C R 26   74 51 124 14 15 .926   2000 13 11 Chris Truby 254 66 15 4 11 27 59 10 1 55 5 1 5 2 1 4 .260 .296 .480 .776 35   5.1 1.9 7.0 .069 .026 .095 6.37 2000 13 11 Chris Truby
2000 10 Ken Caminiti HOU 4C B 37   58 37 81 11 8 .915   2000 10 Ken Caminiti 206 63 13 0 15 41 45 40 6 36 1 0 2 3 0 7 .306 .418 .587 1.005 50   7.9 1.1 9.0 .136 .019 .155 10.46 2000 10 Ken Caminiti
2000 14 Bill Spiers HOU 4C L 34 2B,SS   51 33 85 5 9 .959   2000 14 Bill Spiers 158 50 10 3 2 24 26 20 0 18 0 0 1 1 2 2 .316 .391 .456 .847 29   4.3 1.4 5.7 .084 .027 .112 5.63 2000 14 Bill Spiers
     
2001 11 10 Vinny Castilla HOU T1C R 33 AL-3B   121 82 230 12 18 .963   2001 11 10 Vinny Castilla 437 117 27 1 22 60 81 32 3 86 3 0 4 1 4 19 .268 .319 .485 .804 60   7.3 3.9 11.2 .060 .032 .093 9.44 2001 11 10 Vinny Castilla
2001 26 Chris Truby HOU T1C R 27   35 17 55 6 4 .923   2001 26 Chris Truby 124 26 5 1 7 10 22 12 2 33 1 0 2 1 2 1 .210 .281 .435 .716 15   1.7 0.7 2.4 .049 .020 .069 1.74 2001 26 Chris Truby
     
2002 6 6 Geoff Blum HOU 2C B 29   104 68 199 8 27 .971   2002 6 6 Geoff Blum 331 94 20 4 10 39 51 45 5 59 0 1 2 2 0 8 .284 .368 .459 .827 57   10.0 4.4 14.4 .096 .042 .138 15.83 2002 6 6 Geoff Blum
2002 26 Morgan Ensberg HOU 2C R 26   43 28 76 8 5 .929   2002 26 Morgan Ensberg 129 30 6 2 3 14 17 15 0 25 3 0 0 2 0 8 .233 .327 .380 .707 15   0.8 1.4 2.2 .019 .033 .051 1.47 2002 26 Morgan Ensberg
2002 22 Jose Vizcaino HOU 2C B 34 2B,SS   30 18 44 0 3 1.000   2002 22 Jose Vizcaino 85 27 3 0 1 7 11 8 1 8 0 0 1 0 1 3 .318 .372 .388 .760 12   1.5 1.1 2.6 .050 .037 .087 2.27 2002 22 Jose Vizcaino
     
2003 6 5 Morgan Ensberg HOU 2C R 27   111 77 184 9 18 .967   2003 6 5 Morgan Ensberg 366 106 14 1 23 66 52 42 1 57 5 1 1 7 2 10 .290 .370 .522 .892 71   10.8 3.1 13.9 .097 .028 .125 14.87 2003 6 5 Morgan Ensberg
2003 22 Geoff Blum HOU 2C B 30 2B   83 33 135 5 18 .971   2003 22 Geoff Blum 294 74 14 0 6 33 33 14 0 39 2 2 3 0 0 10 .252 .288 .361 .649 29   1.5 2.0 3.5 .018 .024 .042 2.18 2003 22 Geoff Blum
     
2004 13 12 Morgan Ensberg HOU 2C R 28   118 80 164 13 23 .949   2004 13 12 Morgan Ensberg 395 108 19 3 10 50 60 33 1 46 0 5 3 6 4 16 .273 .327 .413 .740 50   7.4 2.3 9.7 .063 .019 .082 7.61 2004 13 12 Morgan Ensberg
2004 10 Mike Lamb HOU 2C L 28   57 41 106 13 9 .919   2004 10 Mike Lamb 193 59 10 3 10 26 38 20 1 43 0 0 2 0 1 4 .306 .367 .544 .911 38   7.1 1.5 8.6 .125 .026 .151 9.14 2004 10 Mike Lamb
2004 33 Jose Vizcaino HOU 2C B 36 2B,SS   21 10 11 4 0 .840   2004 33 Jose Vizcaino 28 9 1 0 0 3 0 2 0 1 0 0 0 0 0 1 .321 .367 .357 .724 4   0.4 0.1 0.5 .019 .005 .024 0.22 2004 33 Jose Vizcaino
     
2005 1 1 Morgan Ensberg 4 a-rep S HOU 2C R 29   148 100 295 15 31 .963   2005 1 1 Morgan Ensberg 525 148 30 3 36 86 101 84 9 119 8 0 5 6 7 12 .282 .386 .556 .942 112   21.8 5.0 26.8 .147 .034 .181 33.32 2005 1 1 Morgan Ensberg
     
2006 9 9 Morgan Ensberg HOU 2C R 30   117 81 230 12 24 .963   2006 9 9 Morgan Ensberg 375 87 17 1 22 66 56 98 7 93 3 0 3 1 4 3 .232 .392 .459 .851 70   11.2 3.8 15.0 .096 .032 .128 14.59 2006 9 9 Morgan Ensberg
2006 22 Mike Lamb HOU 2C L 30 1B   36 24 70 6 8 .940   2006 22 Mike Lamb 118 33 5 2 2 24 10 11 1 14 0 0 3 0 1 3 .280 .333 .407 .740 16   1.8 1.2 3.0 .050 .033 .083 2.35 2006 22 Mike Lamb
2006 28 Aubrey Huff HOU 2C L 29 RF/AL-3B   30 23 47 2 3 .972   2006 28 Aubrey Huff 95 21 5 1 4 14 12 9 1 17 2 0 1 0 0 3 .221 .299 .421 .720 12   1.0 0.8 1.8 .033 .027 .060 1.19 2006 28 Aubrey Huff
     
2007 18 15 Morgan Ensberg HOU 4C R 31   68 36 107 11 12 .929   2007 18 15 Morgan Ensberg 204 48 10 0 6 34 28 27 0 41 0 2 2 0 1 5 .235 .322 .373 .695 25   2.9 1.6 4.5 .043 .024 .066 3.18 2007 18 15 Morgan Ensberg
2007 14 Mike Lamb HOU 4C L 31 1B   58 29 88 8 8 .936   2007 14 Mike Lamb 185 56 11 1 4 28 15 16 1 29 2 0 2 0 0 3 .303 .361 .438 .799 30   4.8 1.3 6.1 .083 .022 .105 5.44 2007 14 Mike Lamb
2007 16 Ty Wigginton HOU 4C R 29   48 34 88 3 3 .976   2007 16 Ty Wigginton 165 48 12 0 6 24 18 13 0 40 3 0 2 2 0 8 .291 .350 .473 .823 25   3.1 1.7 4.8 .065 .035 .100 4.18 2007 16 Ty Wigginton
2007 27 Mark Loretta HOU 4C R 35 1B,2B,SS   23 11 28 0 0 1.000   2007 27 Mark Loretta 66 19 2 0 1 8 6 4 0 9 1 0 0 0 0 1 .288 .338 .364 .702 8   1.1 0.5 1.6 .048 .022 .070 1.16 2007 27 Mark Loretta
     
2008 9 9 Ty Wigginton HOU 3C R 30 LF   82 46 144 6 11 .969   2008 9 9 Ty Wigginton 264 70 18 0 11 30 31 28 1 45 6 0 3 3 3 5 .265 .346 .458 .804 42   6.7 2.3 9.0 .082 .028 .110 8.78 2008 9 9 Ty Wigginton
2008 14 Geoff Blum HOU 3C B 35   75 43 144 4 8 .979   2008 14 Geoff Blum 257 56 12 1 9 29 36 14 0 36 2 0 6 0 1 4 .218 .258 .377 .635 25   4.3 2.4 6.7 .057 .032 .089 5.88 2008 14 Geoff Blum
     
Pos St All- Other Third Base Fielding Stats Pos St Batting Statistics as Third Baseman Win Shares Pos St
Year Rank Rank Name HOF MVP Star Rookie GG SS Team Stdg Bats Age Pos Games PO Assts Err DP F Pct. Year Rank Rank Name At Bats Hits 2B 3B HR Runs RBI BB IBB SO HP SH SF SB CS GDP BA OBA SA OPS RC B WS F WS T WS BWS/G FWS/G TWS/G Adj WSQ Year Rank Rank Name
2009 19 14 Geoff Blum HOU 5C B 36   102 45 164 3 15 .986   2009 19 14 Geoff Blum 345 87 14 1 8 31 45 28 3 52 7 0 6 0 1 7 .252 .316 .368 .684 41   4.0 1.6 5.6 .039 .016 .055 3.81 2009 19 14 Geoff Blum
2009 29 Jeff Keppinger HOU 5C R 29 2B   67 38 110 7 16 .955   2009 29 Jeff Keppinger 214 52 7 0 7 23 19 22 3 23 2 6 0 0 1 11 .243 .319 .374 .693 23   1.4 1.2 2.6 .021 .018 .039 1.48 2009 29 Jeff Keppinger
     
2010 5 5 Chris Johnson R HOU 4C R 25   90 42 135 18 13 .908   2010 5 5 Chris Johnson 337 104 22 2 11 39 52 15 2 90 2 0 4 3 0 8 .309 .338 .484 .822 54   12.9 1.2 14.1 .143 .013 .157 16.16 2010 5 5 Chris Johnson
2010 27 Pedro Feliz HOU 4C R 35   63 28 103 8 13 .942   2010 27 Pedro Feliz 225 49 8 1 3 16 24 8 1 24 0 0 5 1 1 7 .218 .239 .302 .541 14   - 1.3 1.3 .000 .021 .021 0.55 2010 27 Pedro Feliz
Copyright 2009-11 by Andre Lower
Sources:
All-Time Major League Handbook
Win Shares Digital Update
baseball-reference.com
ESPN Baseball Encyclopedia